12°C
Gosport, Hampshire, United Kingdom
Language:  English
Updated19/10/2019 08:20:00 
 

Nearby METAR Reports

 

EGHI - Southampton Wx Centre, United Kingdom
Distance from station: NW 15mi, 24km
Updated: 19-Oct-2019 07:50:00
Clear
Clear
 Wind from SW
Wind: SW 5 mph , 7 km/h
Temperature: 9°C
Wind Chill: 8°C
Dew Point: 8°C
Humidity: 94%
Barometer: 999 hPa
Summary: Clear
Visibility: greater than 7 miles , 10 km
2019/10/19 06:50 EGHI 190650Z 22004KT CAVOK 09/08 Q0999
EGHH - Bournemouth Airport, United Kingdom
Distance from station: W 30mi, 49km
Updated: 19-Oct-2019 07:50:00
Few Clouds
Few Clouds
 Wind from WSW
Wind: WSW 3 mph , 6 km/h
Temperature: 8°C
Dew Point: 7°C
Humidity: 93%
Barometer: 999 hPa
Clouds: Few Clouds
Visibility: 6 miles , 10 km
Cloud details: Few Clouds 1067 m
2019/10/19 06:50 EGHH 190650Z 25003KT 9999 FEW035 08/07 Q0999
EGVP - Middle Wallop Airfield, United Kingdom
Distance from station: NW 31mi, 49km
Updated: 19-Oct-2019 07:50:00
Clear
Clear
 Wind from SW
Wind: SW 7 mph , 11 km/h
Temperature: 7°C
Wind Chill: 5°C
Dew Point: 6°C
Humidity: 93%
Barometer: 999 hPa
Clouds: Clear
Visibility: 6 miles , 10 km
2019/10/19 06:50 EGVP 190650Z AUTO 22006KT 9999 // NCD 07/06 Q0999
 
EGVO - RAF Odiham, United Kingdom
Distance from station: NNE 32mi, 52km
Updated: 19-Oct-2019 07:50:00
Few Clouds
Few Clouds
 Wind from SSW
Wind: SSW 7 mph , 11 km/h
Temperature: 8°C
Wind Chill: 6°C
Dew Point: 7°C
Humidity: 93%
Barometer: 999 hPa
Clouds: Few Clouds
Visibility: 6 miles , 10 km
Cloud details: Few Clouds 610 m
2019/10/19 06:50 EGVO 190650Z 21006KT 9999 FEW020 08/07 Q0999 RMK BLU
EGKA - Shoreham Airport, United Kingdom
Distance from station: E 37mi, 59km
Updated: 18-Oct-2019 19:50:00
NOT Current
Nearby showers, Partly cloudy
Nearby showers, Partly cloudy
 Wind from SW
Wind: SW 21 mph , 33 km/h, Gust: 33 mph , 54 km/h
Temperature: 14°C
Dew Point: 9°C
Humidity: 72%
Barometer: 1001 hPa
Summary: Nearby Showers
Clouds: Partly cloudy
Visibility: 6 miles , 10 km
Cloud details: Few Clouds 549 m
Partly cloudy 914 m
2019/10/18 18:50 EGKA 181850Z 23018G29KT 9999 VCSH FEW018CB SCT030 14/09 Q1001
EGDM - Boscombe Down, United Kingdom
Distance from station: NW 38mi, 61km
Updated: 19-Oct-2019 07:50:00
Clear
Clear
 Wind from SW
Wind: SW 8 mph , 13 km/h
Temperature: 8°C
Wind Chill: 6°C
Dew Point: 7°C
Humidity: 93%
Barometer: 999 hPa
Clouds: Clear
2019/10/19 06:50 EGDM 190650Z AUTO 22007KT //// // NCD 08/07 Q0999
 
EGLF - Farnborough, United Kingdom
Distance from station: NNE 38mi, 61km
Updated: 19-Oct-2019 07:50:00
Clear
Clear
 Wind from SW
Wind: SW 8 mph , 13 km/h
Temperature: 8°C
Wind Chill: 6°C
Dew Point: 7°C
Humidity: 93%
Barometer: 999 hPa
Clouds: Clear
Visibility: 6 miles , 10 km
2019/10/19 06:50 EGLF 190650Z AUTO 23007KT 9999 NCD 08/07 Q0999
EGKK - Gatwick Airport, United Kingdom
Distance from station: ENE 49mi, 78km
Updated: 19-Oct-2019 07:50:00
Clear
Clear
 Wind from S
Wind: S 5 mph , 7 km/h
Temperature: 9°C
Wind Chill: 8°C
Dew Point: 9°C
Humidity: 100%
Barometer: 999 hPa
Summary: Clear
Visibility: greater than 7 miles , 10 km
2019/10/19 06:50 EGKK 190650Z 19004KT CAVOK 09/09 Q0999
EGLL - Heathrow Airport, United Kingdom
Distance from station: NNE 57mi, 91km
Updated: 19-Oct-2019 07:50:00
Clear
Clear
 Wind from SW
Wind: SW 9 mph , 15 km/h
Temperature: 9°C
Wind Chill: 7°C
Dew Point: 9°C
Humidity: 100%
Barometer: 999 hPa
Clouds: Clear
Visibility: 6 miles , 10 km
2019/10/19 06:50 EGLL 190650Z AUTO 22008KT 9999 NCD 09/09 Q0999 NOSIG
 
EGUB - RAF Benson, United Kingdom
Distance from station: N 58mi, 93km
Updated: 19-Oct-2019 07:50:00
Few Clouds
Few Clouds
 Wind from SSW
Wind: SSW 8 mph , 13 km/h
Temperature: 8°C
Wind Chill: 6°C
Dew Point: 7°C
Humidity: 93%
Barometer: 998 hPa
Clouds: Few Clouds
Visibility: 6 miles , 10 km
Cloud details: Few Clouds 1219 m
2019/10/19 06:50 EGUB 190650Z 20007KT 9999 FEW040 08/07 Q0998 NOSIG RMK BLU BLU
EGWU - RAF Northolt, United Kingdom
Distance from station: NNE 62mi, 99km
Updated: 19-Oct-2019 07:50:00
Clear
Clear
 Wind from SW
Wind: SW 7 mph , 11 km/h
Temperature: 9°C
Wind Chill: 7°C
Dew Point: 8°C
Humidity: 94%
Barometer: 998 hPa
Summary: Clear
Visibility: greater than 7 miles , 10 km
2019/10/19 06:50 EGWU 190650Z 23006KT CAVOK 09/08 Q0998 NOSIG RMK BLU BLU
EGKB - Biggin Hill Airport, United Kingdom
Distance from station: NE 62mi, 100km
Updated: 19-Oct-2019 07:50:00
Clear
Clear
 Wind from SSW
Wind: SSW 13 mph , 20 km/h
Temperature: 9°C
Wind Chill: 6°C
Dew Point: 8°C
Humidity: 94%
Barometer: 999 hPa
Summary: Clear
Visibility: greater than 7 miles , 10 km
2019/10/19 06:50 EGKB 190650Z 20011KT CAVOK 09/08 Q0999
 
EGDY - RNAS Yeovilton, United Kingdom
Distance from station: WNW 66mi, 107km
Updated: 19-Oct-2019 07:50:00
Few Clouds
Few Clouds
 Wind from W
Wind: W 2 mph , 4 km/h
Temperature: 7°C
Dew Point: 5°C
Humidity: 87%
Barometer: 999 hPa
Clouds: Few Clouds
Visibility: 6 miles , 10 km
Cloud details: Few Clouds 853 m
2019/10/19 06:50 EGDY 190650Z AUTO 27002KT 9999 FEW028/// 07/05 Q0999
EGUO - Colerne Airfield, United Kingdom
Distance from station: NW 67mi, 108km
Updated: 14-Feb-2019 22:50:00
NOT Current
Clear
Clear
 Wind from ENE
Wind: ENE 1 mph , 2 km/h
Temperature: 1°C
Dew Point: 0°C
Humidity: 93%
Barometer: 1029 hPa
Summary: Clear
Visibility: greater than 7 miles , 10 km
2019/02/14 22:50 EGUO 142250Z 06001KT CAVOK 01/00 Q1029 BLU NOSIG
EGVA - RAF Fairford, United Kingdom
Distance from station: NNW 67mi, 108km
Updated: 19-Oct-2019 07:56:00
Clear
Clear
 Wind from SW
Wind: SW 8 mph , 13 km/h
Temperature: 7°C
Wind Chill: 5°C
Dew Point: 7°C
Humidity: 100%
Barometer: 998 hPa
Clouds: Clear
Visibility: 6 miles , 10 km
2019/10/19 06:56 EGVA 190656Z AUTO 22007KT 9999 CLR 07/07 A2947 RMK AO2 SLP984 T00710065 $
 
EGVN - RAF Brize Norton, United Kingdom
Distance from station: NNW 71mi, 114km
Updated: 19-Oct-2019 07:50:00
Few Clouds
Few Clouds
 Wind from WSW
Wind: WSW 3 mph , 6 km/h
Temperature: 8°C
Dew Point: 7°C
Humidity: 93%
Barometer: 998 hPa
Clouds: Few Clouds
Visibility: 6 miles , 10 km
Cloud details: Few Clouds 762 m
2019/10/19 06:50 EGVN 190650Z 24003KT 9999 FEW025 08/07 Q0998 NOSIG RMK BLU BLU
EGLC - London City Airport, United Kingdom
Distance from station: NE 71mi, 115km
Updated: 19-Oct-2019 07:50:00
Clear
Clear
 Wind from SSW
Wind: SSW 8 mph , 13 km/h
Temperature: 11°C
Dew Point: 9°C
Humidity: 88%
Barometer: 999 hPa
Clouds: Clear
Visibility: 6 miles , 10 km
2019/10/19 06:50 EGLC 190650Z AUTO 20007KT 160V240 9999 NCD 11/09 Q0999
EGGD - Bristol Airport, United Kingdom
Distance from station: WNW 80mi, 128km
Updated: 19-Oct-2019 07:50:00
Few Clouds
Few Clouds
 Wind from SW
Wind: SW 7 mph , 11 km/h
Temperature: 8°C
Wind Chill: 6°C
Dew Point: 7°C
Humidity: 93%
Barometer: 998 hPa
Clouds: Few Clouds
Visibility: 6 miles , 10 km
Cloud details: Few Clouds 122 m
Few Clouds 1250 m
2019/10/19 06:50 EGGD 190650Z 22006KT 9999 FEW004 FEW041TCU 08/07 Q0998
 
LFRC - Cherbourg-Maupertus Airport, France
Distance from station: S 81mi, 130km
Updated: 19-Oct-2019 08:00:00
Thunderstorm
Thunderstorm
 Wind from SW
Wind: SW 13 mph , 20 km/h
Temperature: 10°C
Wind Chill: 7°C
Dew Point: 9°C
Humidity: 94%
Barometer: 1001 hPa
Clouds: Thunderstorm
Visibility: 6 miles , 10 km
2019/10/19 07:00 LFRC 190700Z AUTO 22011KT 9999 ///CB 10/09 Q1001 TEMPO 24015G25KT 3000 SHRA
EGGW - Luton Airport, United Kingdom
Distance from station: NNE 82mi, 132km
Updated: 19-Oct-2019 07:50:00
Partly cloudy
Partly cloudy
 Wind from SSW
Wind: SSW 9 mph , 15 km/h
Temperature: 8°C
Wind Chill: 5°C
Dew Point: 7°C
Humidity: 93%
Barometer: 998 hPa
Clouds: Partly cloudy
Visibility: 6 miles , 10 km
Cloud details: Partly cloudy 152 m
2019/10/19 06:50 EGGW 190650Z AUTO 21008KT 9999 SCT005 08/07 Q0998